Time;durP1;ratioP1;P1;durP2;ratioP2;P2;SDS_P1;SDS_P2;PMS_P1;PMS_P2;Temp;Humidity;BMP_temperature;BMP_pressure;BME280_temperature;BME280_humidity;BME280_pressure;Samples;Min_cycle;Max_cycle;Signal;HPM_P1;HPM_P2
2021/01/01 00:01:38;;;;;;;9.90;4.95;;;23.90;51.00;;;;;;5068264;28;45234;-48
2021/01/01 00:04:04;;;;;;;8.77;5.57;;;23.90;51.30;;;;;;5067977;27;45673;-48
2021/01/01 00:06:30;;;;;;;9.82;5.78;;;23.80;51.30;;;;;;5067734;28;45382;-47
2021/01/01 00:08:56;;;;;;;8.93;5.13;;;23.80;51.50;;;;;;5071586;28;45274;-48
2021/01/01 00:11:21;;;;;;;8.75;5.53;;;23.80;51.50;;;;;;5087024;28;45523;-47
2021/01/01 00:13:47;;;;;;;8.05;5.45;;;23.80;51.40;;;;;;5070740;28;45560;-47
2021/01/01 00:16:13;;;;;;;9.00;5.80;;;23.80;51.50;;;;;;5086416;28;45469;-48
2021/01/01 00:18:39;;;;;;;10.48;5.50;;;23.70;51.70;;;;;;5088583;28;45326;-48
2021/01/01 00:21:05;;;;;;;7.97;5.20;;;23.70;51.70;;;;;;5071543;28;46248;-47
2021/01/01 00:23:31;;;;;;;10.15;5.60;;;23.70;51.70;;;;;;5067911;28;45374;-48
2021/01/01 00:25:57;;;;;;;9.48;5.30;;;23.70;51.70;;;;;;5070165;27;45261;-49
2021/01/01 00:28:22;;;;;;;11.43;5.90;;;23.70;51.80;;;;;;5070933;28;45574;-50
2021/01/01 00:30:48;;;;;;;10.32;6.43;;;23.70;51.70;;;;;;5070367;28;46837;-47
2021/01/01 00:33:14;;;;;;;10.07;6.18;;;23.70;51.70;;;;;;5071253;28;45553;-48
2021/01/01 00:35:39;;;;;;;7.93;5.20;;;23.60;51.80;;;;;;5071495;28;45374;-48
2021/01/01 00:38:06;;;;;;;9.40;5.80;;;23.60;51.80;;;;;;5089561;28;45525;-48
2021/01/01 00:40:31;;;;;;;9.20;6.00;;;23.50;51.80;;;;;;5072374;28;46099;-48
2021/01/01 00:42:57;;;;;;;8.75;5.88;;;23.50;51.80;;;;;;5077703;28;45377;-47
2021/01/01 00:45:23;;;;;;;10.93;6.38;;;23.50;51.80;;;;;;5070900;28;45372;-48
2021/01/01 00:47:48;;;;;;;12.07;6.60;;;23.50;51.80;;;;;;5082065;28;45346;-47
2021/01/01 00:50:14;;;;;;;11.35;6.40;;;23.50;52.00;;;;;;5066606;28;45592;-48
2021/01/01 00:52:40;;;;;;;10.55;6.18;;;23.50;52.00;;;;;;5068811;28;45377;-48
2021/01/01 00:55:06;;;;;;;9.32;6.05;;;23.40;52.00;;;;;;5068979;28;45461;-49
2021/01/01 00:57:32;;;;;;;9.93;5.82;;;23.40;52.00;;;;;;5069093;28;45557;-48
2021/01/01 00:59:58;;;;;;;11.88;6.43;;;23.40;52.10;;;;;;5068673;28;46231;-48
2021/01/01 01:02:24;;;;;;;11.85;6.75;;;23.40;52.10;;;;;;5075620;27;45303;-48
2021/01/01 01:04:49;;;;;;;8.93;5.97;;;23.40;52.20;;;;;;5068765;28;45318;-50
2021/01/01 01:07:15;;;;;;;11.20;6.43;;;23.30;52.30;;;;;;5085647;27;45549;-49
2021/01/01 01:09:41;;;;;;;10.55;6.82;;;23.30;52.30;;;;;;5071726;28;46150;-50
2021/01/01 01:12:07;;;;;;;9.68;6.63;;;23.30;52.30;;;;;;5089012;28;45372;-52
2021/01/01 01:14:32;;;;;;;10.00;5.80;;;23.30;52.40;;;;;;5072143;28;45325;-49
2021/01/01 01:16:58;;;;;;;9.90;6.72;;;23.30;52.40;;;;;;5066476;28;45544;-48
2021/01/01 01:19:24;;;;;;;9.90;6.43;;;23.20;52.50;;;;;;5050931;28;46549;-51
2021/01/01 01:21:49;;;;;;;11.40;6.78;;;23.20;52.40;;;;;;5050013;28;45451;-49
2021/01/01 01:24:15;;;;;;;8.65;5.72;;;23.20;52.60;;;;;;5051609;28;45385;-49
2021/01/01 01:26:41;;;;;;;9.55;6.55;;;23.10;52.60;;;;;;5069019;28;45469;-48
2021/01/01 01:29:06;;;;;;;9.45;6.25;;;23.10;52.70;;;;;;5067460;28;46302;-49
2021/01/01 01:31:32;;;;;;;10.13;6.20;;;23.10;52.70;;;;;;5051517;28;45277;-48
2021/01/01 01:33:57;;;;;;;10.80;5.95;;;23.10;52.80;;;;;;5051493;28;45309;-48
2021/01/01 01:36:23;;;;;;;10.45;6.20;;;23.10;52.80;;;;;;5051996;28;45229;-48
2021/01/01 01:38:49;;;;;;;11.45;6.88;;;23.00;52.80;;;;;;5051595;28;45169;-47
2021/01/01 01:41:14;;;;;;;11.18;6.85;;;23.10;52.80;;;;;;5051269;28;45291;-47
2021/01/01 01:43:40;;;;;;;10.05;6.60;;;23.00;52.80;;;;;;5058272;28;45337;-48
2021/01/01 01:46:05;;;;;;;14.95;6.85;;;23.00;52.80;;;;;;5071863;28;45644;-48
2021/01/01 01:48:37;;;;;;;9.77;6.45;;;23.00;52.80;;;;;;5071419;28;47163;-48
2021/01/01 01:51:03;;;;;;;9.93;6.47;;;23.00;53.50;;;;;;5088448;28;45383;-47
2021/01/01 01:53:32;;;;;;;10.55;6.50;;;22.90;52.90;;;;;;5071279;28;45363;-47
2021/01/01 01:55:57;;;;;;;11.07;6.40;;;22.90;52.90;;;;;;5090101;27;45368;-47
2021/01/01 01:58:23;;;;;;;9.25;6.43;;;22.90;53.00;;;;;;5071179;28;46662;-48
2021/01/01 02:00:58;;;;;;;8.88;6.57;;;22.90;52.90;;;;;;5070992;28;45310;-47
2021/01/01 02:03:28;;;;;;;10.32;7.30;;;22.90;52.90;;;;;;5072743;28;45338;-47
2021/01/01 02:05:54;;;;;;;9.43;7.50;;;22.90;52.90;;;;;;5071865;28;45594;-47
2021/01/01 02:08:20;;;;;;;10.32;7.38;;;22.80;52.90;;;;;;5071103;28;45503;-48
2021/01/01 02:10:46;;;;;;;11.40;6.75;;;22.80;52.90;;;;;;5087998;28;45649;-48
2021/01/01 02:13:12;;;;;;;11.60;7.20;;;22.80;52.80;;;;;;5071365;28;45649;-48
2021/01/01 02:15:38;;;;;;;9.75;6.70;;;22.80;52.80;;;;;;5071492;28;45308;-48
2021/01/01 02:18:04;;;;;;;10.52;6.32;;;22.80;52.80;;;;;;5070731;28;47055;-47
2021/01/01 02:20:29;;;;;;;11.02;7.07;;;22.80;52.80;;;;;;5070998;28;45473;-47
2021/01/01 02:22:55;;;;;;;9.13;7.13;;;22.80;52.80;;;;;;5070652;28;45387;-47
2021/01/01 02:25:20;;;;;;;12.10;7.05;;;22.80;52.80;;;;;;5071301;28;45747;-46
2021/01/01 02:27:46;;;;;;;13.40;7.00;;;22.80;52.80;;;;;;5088076;27;47159;-49
2021/01/01 02:30:12;;;;;;;10.43;7.38;;;22.80;52.70;;;;;;5060213;28;45371;-48
2021/01/01 02:32:38;;;;;;;8.90;6.85;;;22.80;52.70;;;;;;5050791;28;45319;-49
2021/01/01 02:35:04;;;;;;;11.52;7.40;;;22.80;52.70;;;;;;5051231;28;45485;-48
2021/01/01 02:37:30;;;;;;;10.50;8.05;;;22.80;52.70;;;;;;5065212;28;46391;-48
2021/01/01 02:39:55;;;;;;;9.43;6.57;;;22.70;52.70;;;;;;5068568;28;45344;-48
2021/01/01 02:42:21;;;;;;;12.65;7.25;;;22.70;52.70;;;;;;5070031;28;45310;-47
2021/01/01 02:44:47;;;;;;;9.88;7.40;;;22.70;52.70;;;;;;5070734;28;45348;-48
2021/01/01 02:47:13;;;;;;;9.45;7.00;;;22.70;52.70;;;;;;5070511;28;46111;-48
2021/01/01 02:49:39;;;;;;;9.52;6.65;;;22.70;52.70;;;;;;5070633;28;45327;-49
2021/01/01 02:52:04;;;;;;;9.00;7.30;;;22.70;52.70;;;;;;5070569;28;45436;-47
2021/01/01 02:54:30;;;;;;;7.75;6.43;;;22.60;52.60;;;;;;5071154;28;45714;-48
2021/01/01 02:56:56;;;;;;;10.77;7.32;;;22.60;52.60;;;;;;5070404;28;45333;-48
2021/01/01 02:59:21;;;;;;;9.68;7.13;;;22.60;52.60;;;;;;5087204;28;45255;-49
2021/01/01 03:01:47;;;;;;;10.68;6.72;;;22.60;52.60;;;;;;5070377;28;45358;-48
2021/01/01 03:04:13;;;;;;;9.05;7.10;;;22.60;52.60;;;;;;5070689;28;45288;-48
2021/01/01 03:06:39;;;;;;;10.23;7.00;;;22.60;52.60;;;;;;5070029;28;46948;-48
2021/01/01 03:09:05;;;;;;;10.50;7.13;;;22.60;52.60;;;;;;5070465;28;45264;-48
2021/01/01 03:11:31;;;;;;;9.88;7.00;;;22.60;52.60;;;;;;5070358;28;45442;-48
2021/01/01 03:13:56;;;;;;;10.55;6.53;;;22.60;52.60;;;;;;5070403;28;45395;-48
2021/01/01 03:16:22;;;;;;;9.00;6.85;;;22.60;52.60;;;;;;5069988;28;46456;-49
2021/01/01 03:18:48;;;;;;;9.05;7.13;;;22.60;52.50;;;;;;5070307;28;45345;-48
2021/01/01 03:21:13;;;;;;;14.02;8.85;;;22.60;52.50;;;;;;5069885;28;45350;-48
2021/01/01 03:23:39;;;;;;;11.35;7.15;;;22.50;52.50;;;;;;5070072;28;45516;-48
2021/01/01 03:26:04;;;;;;;11.20;8.07;;;22.50;52.50;;;;;;5069972;28;45434;-49
2021/01/01 03:28:30;;;;;;;10.18;7.70;;;22.50;52.50;;;;;;5070096;28;45354;-49
2021/01/01 03:30:56;;;;;;;10.15;7.50;;;22.50;52.50;;;;;;5069993;28;45331;-48
2021/01/01 03:33:21;;;;;;;9.27;7.05;;;22.50;52.50;;;;;;5070659;28;45334;-49
2021/01/01 03:35:48;;;;;;;8.90;6.93;;;22.50;52.50;;;;;;5086754;28;46925;-48
2021/01/01 03:38:13;;;;;;;9.90;7.20;;;22.50;52.50;;;;;;5069735;28;45316;-48
2021/01/01 03:40:39;;;;;;;10.93;6.95;;;22.50;52.50;;;;;;5072838;28;45299;-49
2021/01/01 03:43:04;;;;;;;9.98;7.60;;;22.50;52.50;;;;;;5092057;27;45548;-48
2021/01/01 03:45:30;;;;;;;9.38;7.00;;;22.50;52.50;;;;;;5073093;28;46937;-49
2021/01/01 03:47:56;;;;;;;9.73;7.13;;;22.50;52.40;;;;;;5073617;28;45243;-48
2021/01/01 03:50:21;;;;;;;9.65;6.95;;;22.50;52.40;;;;;;5090479;28;45409;-48
2021/01/01 03:52:47;;;;;;;9.13;6.78;;;22.40;52.40;;;;;;5073603;28;45394;-48
2021/01/01 03:55:13;;;;;;;9.27;6.95;;;22.40;52.40;;;;;;5091183;27;46930;-48
2021/01/01 03:57:40;;;;;;;10.98;7.60;;;22.40;52.40;;;;;;5073244;28;45417;-47
2021/01/01 04:00:06;;;;;;;9.95;7.68;;;22.40;52.30;;;;;;5073553;28;45376;-48
2021/01/01 04:02:32;;;;;;;9.27;7.15;;;22.40;52.40;;;;;;5056605;28;45425;-47
2021/01/01 04:04:58;;;;;;;9.73;6.45;;;22.40;52.30;;;;;;5071916;27;47400;-47
2021/01/01 04:07:23;;;;;;;9.45;7.60;;;22.40;52.30;;;;;;5072160;28;45261;-47
2021/01/01 04:09:49;;;;;;;10.02;7.38;;;22.40;52.30;;;;;;5087624;28;45429;-48
2021/01/01 04:12:14;;;;;;;9.15;6.70;;;22.40;52.30;;;;;;5073509;28;45292;-47
2021/01/01 04:14:40;;;;;;;10.07;7.28;;;22.40;52.30;;;;;;5073091;28;46391;-48
2021/01/01 04:17:06;;;;;;;10.95;7.07;;;22.40;52.30;;;;;;5089856;28;45185;-47
2021/01/01 04:19:31;;;;;;;10.02;7.07;;;22.40;52.30;;;;;;5072944;28;45484;-47
2021/01/01 04:21:57;;;;;;;8.05;6.65;;;22.40;52.30;;;;;;5073381;28;45540;-48
2021/01/01 04:24:23;;;;;;;9.05;6.85;;;22.40;52.30;;;;;;5072061;28;46521;-48
2021/01/01 04:26:48;;;;;;;9.40;7.40;;;22.30;52.20;;;;;;5072141;28;45314;-47
2021/01/01 04:29:14;;;;;;;9.57;7.20;;;22.30;52.20;;;;;;5072902;28;45313;-47
2021/01/01 04:31:39;;;;;;;11.15;7.88;;;22.30;52.20;;;;;;5090210;28;45344;-48
2021/01/01 04:34:05;;;;;;;9.40;6.95;;;22.30;52.10;;;;;;5072226;28;46861;-48
2021/01/01 04:36:31;;;;;;;8.40;6.68;;;22.30;52.20;;;;;;5072737;28;45356;-48
2021/01/01 04:38:57;;;;;;;10.48;7.18;;;22.30;52.10;;;;;;5072715;28;45265;-48
2021/01/01 04:41:23;;;;;;;10.05;7.00;;;22.30;52.20;;;;;;5073012;28;45323;-47
2021/01/01 04:43:49;;;;;;;9.73;7.32;;;22.30;52.20;;;;;;5089305;28;45957;-48
2021/01/01 04:46:15;;;;;;;10.80;7.65;;;22.30;52.10;;;;;;5072533;28;45262;-47
2021/01/01 04:48:45;;;;;;;9.07;6.63;;;22.30;52.20;;;;;;5072305;28;45299;-47
2021/01/01 04:51:11;;;;;;;8.82;6.43;;;22.30;52.10;;;;;;5072536;28;45611;-48
2021/01/01 04:53:40;;;;;;;11.18;7.25;;;22.30;52.10;;;;;;5072311;28;46037;-49
2021/01/01 04:56:06;;;;;;;9.10;6.40;;;22.30;52.10;;;;;;5072198;28;45246;-48
2021/01/01 04:58:32;;;;;;;11.65;6.80;;;22.30;52.10;;;;;;5072408;28;45366;-48
2021/01/01 05:00:58;;;;;;;9.73;6.93;;;22.20;52.10;;;;;;5072699;28;45322;-48
2021/01/01 05:03:24;;;;;;;9.25;7.30;;;22.20;52.10;;;;;;5071911;28;46005;-48
2021/01/01 05:05:53;;;;;;;8.75;6.72;;;22.20;52.10;;;;;;5072054;28;45371;-48
2021/01/01 05:08:19;;;;;;;9.55;6.45;;;22.30;52.10;;;;;;5072195;28;45300;-48
2021/01/01 05:10:45;;;;;;;9.10;6.32;;;22.20;52.00;;;;;;5072845;28;45696;-49
2021/01/01 05:13:14;;;;;;;9.15;6.45;;;22.20;52.00;;;;;;5071784;28;45251;-49
2021/01/01 05:15:41;;;;;;;9.75;7.03;;;22.20;52.60;;;;;;5089038;28;45340;-48
2021/01/01 05:18:17;;;;;;;8.75;6.40;;;22.30;51.80;;;;;;5072451;28;45266;-48
2021/01/01 05:20:43;;;;;;;8.05;5.97;;;22.40;51.60;;;;;;5089164;28;45359;-48
2021/01/01 05:23:17;;;;;;;9.10;6.93;;;22.40;51.40;;;;;;5071364;28;46024;-48
2021/01/01 05:25:43;;;;;;;8.10;6.20;;;22.40;51.20;;;;;;5088723;28;45501;-48
2021/01/01 05:28:11;;;;;;;7.95;6.78;;;22.50;51.10;;;;;;5072041;28;45314;-48
2021/01/01 05:30:37;;;;;;;8.98;6.40;;;22.50;50.90;;;;;;5086813;28;45587;-48
2021/01/01 05:33:02;;;;;;;9.23;7.38;;;22.50;50.80;;;;;;5071576;28;45465;-49
2021/01/01 05:35:29;;;;;;;8.02;6.40;;;22.60;50.70;;;;;;5071850;28;45295;-48
2021/01/01 05:37:54;;;;;;;8.40;7.13;;;22.60;50.60;;;;;;5071572;28;45338;-48
2021/01/01 05:40:30;;;;;;;7.55;5.97;;;22.60;50.50;;;;;;5067339;28;45556;-48
2021/01/01 05:42:56;;;;;;;9.30;6.65;;;22.70;50.70;;;;;;5068647;28;46282;-55
2021/01/01 05:45:25;;;;;;;7.22;5.70;;;22.70;50.60;;;;;;5071808;28;45252;-53
2021/01/01 05:48:07;;;;;;;7.95;5.97;;;22.80;50.60;;;;;;5071757;28;45426;-50
2021/01/01 05:50:33;;;;;;;6.90;5.72;;;22.80;50.40;;;;;;5089245;28;45439;-51
2021/01/01 05:53:11;;;;;;;7.20;5.72;;;22.80;50.50;;;;;;5054217;28;46182;-51
2021/01/01 05:55:37;;;;;;;9.82;6.70;;;22.80;50.40;;;;;;5069185;28;45373;-50
2021/01/01 05:58:02;;;;;;;8.43;5.88;;;22.70;50.80;;;;;;5051485;28;45375;-51
2021/01/01 06:00:29;;;;;;;7.88;5.68;;;22.80;50.80;;;;;;5051889;28;45351;-49
2021/01/01 06:02:55;;;;;;;8.38;6.25;;;22.70;50.70;;;;;;5049821;28;45436;-48
2021/01/01 06:05:20;;;;;;;8.35;5.82;;;22.80;50.70;;;;;;5050720;28;45318;-48
2021/01/01 06:07:46;;;;;;;9.55;6.68;;;22.80;50.50;;;;;;5051139;28;45229;-47
2021/01/01 06:10:12;;;;;;;8.45;6.90;;;22.80;50.30;;;;;;5051478;28;45272;-49
2021/01/01 06:12:38;;;;;;;8.05;6.13;;;22.80;50.20;;;;;;5050342;28;45375;-47
2021/01/01 06:15:13;;;;;;;7.63;5.57;;;22.80;50.10;;;;;;5080121;28;45304;-47
2021/01/01 06:17:47;;;;;;;7.18;5.47;;;22.80;49.90;;;;;;5087670;28;45286;-49
2021/01/01 06:20:17;;;;;;;10.05;6.65;;;22.80;50.10;;;;;;5088766;28;45512;-48
2021/01/01 06:23:01;;;;;;;8.32;5.85;;;22.80;50.00;;;;;;5087438;28;47905;-49
2021/01/01 06:25:27;;;;;;;7.72;5.65;;;22.90;49.90;;;;;;5069913;28;45677;-48
2021/01/01 06:27:52;;;;;;;7.93;5.88;;;22.90;50.00;;;;;;5069493;28;45626;-49
2021/01/01 06:30:19;;;;;;;7.88;5.93;;;22.90;49.90;;;;;;5051384;28;45311;-48
2021/01/01 06:32:45;;;;;;;7.90;5.70;;;22.90;49.80;;;;;;5050279;28;45405;-48
2021/01/01 06:35:21;;;;;;;8.68;5.75;;;23.00;49.70;;;;;;5050125;28;45260;-48
2021/01/01 06:37:53;;;;;;;6.63;5.18;;;23.00;49.70;;;;;;5067507;28;45399;-48
2021/01/01 06:40:22;;;;;;;8.60;5.45;;;23.00;49.70;;;;;;5052285;28;45337;-48
2021/01/01 06:43:00;;;;;;;7.45;5.63;;;23.00;49.60;;;;;;5068542;28;45267;-48
2021/01/01 06:45:35;;;;;;;7.70;5.68;;;23.10;49.80;;;;;;5070835;28;45520;-48
2021/01/01 06:48:24;;;;;;;7.80;6.35;;;23.10;49.60;;;;;;5067279;28;45277;-52
2021/01/01 06:50:51;;;;;;;7.82;5.80;;;23.10;50.20;;;;;;5062428;28;45535;-50
2021/01/01 06:53:17;;;;;;;8.45;5.50;;;23.20;49.60;;;;;;5049900;28;45250;-48
2021/01/01 06:55:47;;;;;;;10.80;6.20;;;23.10;49.50;;;;;;5050177;28;45584;-48
2021/01/01 06:58:14;;;;;;;8.57;5.50;;;23.20;49.50;;;;;;5054065;28;45331;-47
2021/01/01 07:00:49;;;;;;;8.45;6.30;;;23.20;49.50;;;;;;5067945;28;45265;-49
2021/01/01 07:03:27;;;;;;;7.85;5.90;;;23.20;49.40;;;;;;5082309;27;47219;-47
2021/01/01 07:05:56;;;;;;;7.65;6.10;;;23.20;49.30;;;;;;5086983;27;45188;-47
2021/01/01 07:08:40;;;;;;;11.10;6.95;;;23.20;49.40;;;;;;5080298;27;45534;-48
2021/01/01 07:11:21;;;;;;;8.32;5.68;;;23.20;49.20;;;;;;5067639;28;45458;-47
2021/01/01 07:13:54;;;;;;;8.00;5.75;;;23.20;49.20;;;;;;5084023;27;46200;-48
2021/01/01 07:16:20;;;;;;;8.00;5.53;;;23.30;49.30;;;;;;5086476;27;45331;-48
2021/01/01 07:18:46;;;;;;;8.30;6.45;;;23.20;49.20;;;;;;5070512;28;45309;-48
2021/01/01 07:21:16;;;;;;;7.72;5.93;;;23.20;49.20;;;;;;5057609;28;45595;-48
2021/01/01 07:23:42;;;;;;;7.43;5.97;;;23.20;49.20;;;;;;5049788;28;45465;-49
2021/01/01 07:26:09;;;;;;;8.32;5.90;;;23.20;49.20;;;;;;5066280;27;45356;-47
2021/01/01 07:28:36;;;;;;;8.23;6.43;;;23.20;49.10;;;;;;5070197;27;45360;-48
2021/01/01 07:31:02;;;;;;;7.50;5.75;;;23.20;49.10;;;;;;5070099;28;45253;-49
2021/01/01 07:33:32;;;;;;;8.25;5.10;;;23.30;49.10;;;;;;5069535;28;45570;-49
2021/01/01 07:36:05;;;;;;;8.68;6.03;;;23.30;49.10;;;;;;5070145;28;45480;-48
2021/01/01 07:38:36;;;;;;;8.25;5.82;;;23.40;49.10;;;;;;5068378;27;45460;-49
2021/01/01 07:41:02;;;;;;;9.10;5.95;;;23.30;49.10;;;;;;5067003;28;45581;-48
2021/01/01 07:43:27;;;;;;;7.65;6.15;;;23.30;49.00;;;;;;5054696;28;45337;-48
2021/01/01 07:46:01;;;;;;;8.57;5.68;;;23.30;49.00;;;;;;5065791;28;45239;-47
2021/01/01 07:48:27;;;;;;;8.63;5.68;;;23.40;49.00;;;;;;5070233;28;45233;-48
2021/01/01 07:50:57;;;;;;;7.22;5.28;;;23.40;49.00;;;;;;5050441;28;45276;-48
2021/01/01 07:53:23;;;;;;;6.88;5.47;;;23.40;48.90;;;;;;5066168;28;46975;-48
2021/01/01 07:55:49;;;;;;;6.85;5.78;;;23.40;48.90;;;;;;5049466;28;45399;-49
2021/01/01 07:58:15;;;;;;;8.23;5.60;;;23.40;48.80;;;;;;5049554;28;45451;-48
2021/01/01 08:00:42;;;;;;;8.63;5.78;;;23.40;48.90;;;;;;5057855;28;45458;-47
2021/01/01 08:03:08;;;;;;;7.35;5.30;;;23.40;48.80;;;;;;5049872;28;46223;-47
2021/01/01 08:05:33;;;;;;;8.02;5.43;;;23.40;48.80;;;;;;5065519;27;45346;-46
2021/01/01 08:08:12;;;;;;;6.80;5.57;;;23.40;48.80;;;;;;5049368;28;45236;-49
2021/01/01 08:10:38;;;;;;;7.60;5.85;;;23.40;48.60;;;;;;5079809;27;45542;-48
2021/01/01 08:13:04;;;;;;;7.55;5.53;;;23.40;48.70;;;;;;5081668;27;45433;-48
2021/01/01 08:15:30;;;;;;;6.70;4.95;;;23.40;48.80;;;;;;5049011;28;45359;-48
2021/01/01 08:17:56;;;;;;;8.15;5.25;;;23.40;48.80;;;;;;5054450;28;45323;-48
2021/01/01 08:20:21;;;;;;;7.55;5.57;;;23.40;48.90;;;;;;5086320;28;45375;-48
2021/01/01 08:22:48;;;;;;;7.28;5.25;;;23.50;48.90;;;;;;5068975;28;47121;-49
2021/01/01 08:25:14;;;;;;;7.45;4.90;;;23.40;48.80;;;;;;5069047;27;45224;-49
2021/01/01 08:27:40;;;;;;;6.57;5.20;;;23.50;48.90;;;;;;5068509;28;45316;-48
2021/01/01 08:30:06;;;;;;;7.05;5.43;;;23.40;48.90;;;;;;5053169;28;45593;-48
2021/01/01 08:32:33;;;;;;;6.13;4.65;;;23.40;49.00;;;;;;5056128;28;45557;-49
2021/01/01 08:34:59;;;;;;;6.28;4.85;;;23.40;48.90;;;;;;5071312;28;45265;-48
2021/01/01 08:37:25;;;;;;;6.45;4.65;;;23.40;48.90;;;;;;5067814;28;45926;-48
2021/01/01 08:40:01;;;;;;;6.60;4.85;;;23.40;49.00;;;;;;5065816;28;45490;-47
2021/01/01 08:42:26;;;;;;;9.77;4.50;;;23.40;49.30;;;;;;5070342;27;45325;-49
2021/01/01 08:45:05;;;;;;;8.35;4.90;;;23.40;49.50;;;;;;5070440;28;45356;-49
2021/01/01 08:47:44;;;;;;;8.95;5.60;;;23.30;49.80;;;;;;5080504;27;45476;-48
2021/01/01 08:50:19;;;;;;;10.13;5.88;;;23.20;50.50;;;;;;5088052;28;45520;-48
2021/01/01 08:52:45;;;;;;;7.45;5.13;;;23.20;50.50;;;;;;5086974;28;47183;-49
2021/01/01 08:55:12;;;;;;;9.55;5.32;;;23.10;50.70;;;;;;5068395;28;45363;-46
2021/01/01 08:57:37;;;;;;;7.80;4.95;;;23.10;50.90;;;;;;5088952;28;45248;-47
2021/01/01 09:00:04;;;;;;;7.00;5.07;;;23.10;51.20;;;;;;5072071;28;45412;-48
2021/01/01 09:02:30;;;;;;;7.78;4.93;;;23.00;51.30;;;;;;5068126;28;46487;-48
2021/01/01 09:04:57;;;;;;;8.10;5.00;;;23.00;51.30;;;;;;5052724;27;45325;-49
2021/01/01 09:07:23;;;;;;;8.70;4.75;;;23.00;51.40;;;;;;5052111;28;45328;-49
2021/01/01 09:09:49;;;;;;;6.53;4.00;;;23.00;51.40;;;;;;5053942;28;45570;-48
2021/01/01 09:12:23;;;;;;;9.30;4.95;;;23.00;51.40;;;;;;5072010;28;46127;-48
2021/01/01 09:14:54;;;;;;;7.60;4.63;;;23.00;51.20;;;;;;5088814;28;45413;-48
2021/01/01 09:17:20;;;;;;;10.40;5.38;;;22.90;51.10;;;;;;5088938;28;45373;-48
2021/01/01 09:19:47;;;;;;;8.82;4.63;;;22.90;51.30;;;;;;5071545;28;45185;-48
2021/01/01 09:22:14;;;;;;;15.68;4.90;;;22.90;51.30;;;;;;5086992;28;45475;-48
2021/01/01 09:24:39;;;;;;;8.82;5.32;;;22.80;51.30;;;;;;5069978;28;45438;-49
2021/01/01 09:27:05;;;;;;;13.45;6.45;;;22.80;50.90;;;;;;5051669;28;45359;-48
2021/01/01 09:29:31;;;;;;;8.25;5.25;;;22.70;50.40;;;;;;5052013;28;45551;-48
2021/01/01 09:31:56;;;;;;;8.35;5.10;;;22.70;49.90;;;;;;5051254;28;46467;-48
2021/01/01 09:34:22;;;;;;;10.10;5.05;;;22.70;49.70;;;;;;5051377;28;45331;-48
2021/01/01 09:36:48;;;;;;;10.20;5.78;;;22.60;49.50;;;;;;5052270;27;45248;-48
2021/01/01 09:39:13;;;;;;;9.77;5.55;;;22.60;49.50;;;;;;5068839;28;45469;-49
2021/01/01 09:41:39;;;;;;;10.43;4.70;;;22.60;49.30;;;;;;5066741;28;47306;-47
2021/01/01 09:44:05;;;;;;;14.93;5.55;;;22.60;49.00;;;;;;5070479;28;45480;-47
2021/01/01 09:46:31;;;;;;;14.30;5.93;;;22.60;49.10;;;;;;5086785;28;45642;-48
2021/01/01 09:48:56;;;;;;;11.68;6.20;;;22.60;49.40;;;;;;5070608;28;45416;-48
2021/01/01 09:51:22;;;;;;;13.90;5.90;;;22.50;49.50;;;;;;5069855;28;45426;-48
2021/01/01 09:53:48;;;;;;;15.20;7.07;;;22.50;49.50;;;;;;5069701;28;45358;-47
2021/01/01 09:56:13;;;;;;;14.68;5.95;;;22.50;49.50;;;;;;5083175;28;45397;-47
2021/01/01 09:58:39;;;;;;;13.50;6.32;;;22.50;49.20;;;;;;5083260;28;45652;-47
2021/01/01 10:01:05;;;;;;;12.93;5.93;;;22.40;49.00;;;;;;5061989;28;45530;-47
2021/01/01 10:03:30;;;;;;;16.67;6.07;;;22.40;49.10;;;;;;5085938;28;45428;-47
2021/01/01 10:05:56;;;;;;;16.90;6.18;;;22.40;49.10;;;;;;5068329;28;45423;-47
2021/01/01 10:08:21;;;;;;;8.65;4.88;;;22.50;49.10;;;;;;5070311;28;45362;-47
2021/01/01 10:10:47;;;;;;;12.13;5.20;;;22.50;49.10;;;;;;5069213;28;45374;-48
2021/01/01 10:13:13;;;;;;;12.05;5.03;;;22.50;49.10;;;;;;5069762;28;45328;-47
2021/01/01 10:15:39;;;;;;;10.95;5.03;;;22.40;49.20;;;;;;5086810;28;45467;-47
2021/01/01 10:18:05;;;;;;;9.90;4.40;;;22.50;49.30;;;;;;5079676;28;45527;-47
2021/01/01 10:20:30;;;;;;;10.60;4.55;;;22.50;49.40;;;;;;5066240;28;46097;-50
2021/01/01 10:22:57;;;;;;;9.82;4.93;;;22.40;49.40;;;;;;5085369;28;46670;-51
2021/01/01 10:25:23;;;;;;;7.95;4.57;;;22.40;49.50;;;;;;5069664;28;46438;-49
2021/01/01 10:27:49;;;;;;;9.35;4.57;;;22.40;49.70;;;;;;5070910;28;45481;-49
2021/01/01 10:30:15;;;;;;;8.27;4.30;;;22.40;50.20;;;;;;5070713;28;45932;-51
2021/01/01 10:32:40;;;;;;;10.55;4.55;;;22.40;50.20;;;;;;5070854;28;45382;-49
2021/01/01 10:35:07;;;;;;;12.60;4.88;;;22.40;50.40;;;;;;5070243;28;45376;-50
2021/01/01 10:37:32;;;;;;;7.60;4.60;;;22.40;50.50;;;;;;5071337;28;45371;-49
2021/01/01 10:39:58;;;;;;;12.82;4.50;;;22.30;50.60;;;;;;5061768;28;46213;-49
2021/01/01 10:42:27;;;;;;;9.10;4.97;;;22.30;50.50;;;;;;5081060;28;45691;-51
2021/01/01 10:44:52;;;;;;;10.80;4.35;;;22.30;50.80;;;;;;5064751;28;45708;-47
2021/01/01 10:47:18;;;;;;;10.57;4.15;;;22.30;50.80;;;;;;5069923;28;45520;-49
2021/01/01 10:49:44;;;;;;;8.40;4.13;;;22.20;50.80;;;;;;5068851;28;46117;-48
2021/01/01 10:52:10;;;;;;;12.77;4.20;;;22.20;51.00;;;;;;5085926;28;45605;-47
2021/01/01 10:54:35;;;;;;;7.75;4.05;;;22.20;51.00;;;;;;5087481;28;45792;-47
2021/01/01 10:57:01;;;;;;;13.90;3.97;;;22.20;51.20;;;;;;5070873;28;45406;-47
2021/01/01 10:59:26;;;;;;;6.63;3.63;;;22.20;51.20;;;;;;5070034;28;46159;-47
2021/01/01 11:01:56;;;;;;;5.65;3.85;;;22.30;51.80;;;;;;5070516;28;45231;-48
2021/01/01 11:04:21;;;;;;;7.65;4.90;;;22.30;51.90;;;;;;5070091;28;45211;-47
2021/01/01 11:06:47;;;;;;;13.45;4.63;;;22.30;52.00;;;;;;5070697;28;45425;-47
2021/01/01 11:09:13;;;;;;;7.20;3.75;;;22.30;52.10;;;;;;5070151;28;46123;-47
2021/01/01 11:11:38;;;;;;;9.38;3.80;;;22.40;52.20;;;;;;5070042;28;45314;-48
2021/01/01 11:14:09;;;;;;;12.63;4.25;;;22.40;52.20;;;;;;5070107;28;45317;-47
2021/01/01 12:22:43;;;;;;;4.57;2.40;;;22.60;51.60;;;;;;5072234;28;45308;-47
2021/01/01 12:25:10;;;;;;;5.18;3.33;;;22.60;51.50;;;;;;5074165;28;45289;-47
2021/01/01 12:27:36;;;;;;;6.00;3.22;;;22.70;51.50;;;;;;5072860;28;45464;-47
2021/01/01 12:30:06;;;;;;;5.13;2.90;;;22.70;51.50;;;;;;5072898;28;45447;-48
2021/01/01 12:32:32;;;;;;;5.65;3.20;;;22.70;51.50;;;;;;5090292;28;45283;-48
2021/01/01 12:34:59;;;;;;;4.75;2.42;;;22.70;51.50;;;;;;5072490;28;47224;-48
2021/01/01 12:37:25;;;;;;;4.93;3.05;;;22.60;51.40;;;;;;5072799;28;45219;-47
2021/01/01 12:39:50;;;;;;;4.93;3.42;;;22.70;51.50;;;;;;5072782;28;45301;-48
2021/01/01 12:42:16;;;;;;;4.30;2.53;;;22.70;51.40;;;;;;5072810;28;45319;-48
2021/01/01 12:44:42;;;;;;;4.32;2.67;;;22.70;51.50;;;;;;5072347;28;46434;-48
2021/01/01 12:47:07;;;;;;;5.88;3.70;;;22.70;52.10;;;;;;5072326;28;45295;-49
2021/01/01 12:49:33;;;;;;;5.18;2.80;;;22.60;51.50;;;;;;5072508;28;45382;-48
2021/01/01 12:51:59;;;;;;;4.78;2.83;;;22.60;51.60;;;;;;5072811;28;45411;-48
2021/01/01 12:54:25;;;;;;;4.28;3.03;;;22.60;51.60;;;;;;5072315;28;46071;-48
2021/01/01 12:56:50;;;;;;;4.85;2.72;;;22.60;52.20;;;;;;5089180;28;45394;-47
2021/01/01 12:59:16;;;;;;;6.75;2.70;;;22.60;51.50;;;;;;5089381;28;45318;-47
2021/01/01 13:01:42;;;;;;;4.53;2.88;;;22.60;51.40;;;;;;5073106;28;45307;-47
2021/01/01 13:04:07;;;;;;;4.55;3.03;;;22.60;51.30;;;;;;5071997;28;46928;-48
2021/01/01 13:06:33;;;;;;;5.30;2.65;;;22.60;51.30;;;;;;5072138;28;45215;-48
2021/01/01 13:09:01;;;;;;;4.22;2.78;;;22.70;51.30;;;;;;5072407;28;45424;-48
2021/01/01 13:11:31;;;;;;;4.57;2.88;;;22.70;51.20;;;;;;5073022;27;45531;-48
2021/01/01 13:13:57;;;;;;;4.03;2.47;;;22.70;51.30;;;;;;5088337;28;46240;-48
2021/01/01 13:16:23;;;;;;;5.57;3.13;;;22.70;51.30;;;;;;5071976;28;45229;-48
2021/01/01 13:18:50;;;;;;;3.97;2.78;;;22.70;51.20;;;;;;5072344;28;45267;-48
2021/01/01 13:21:25;;;;;;;4.28;2.90;;;22.70;51.10;;;;;;5070102;28;45616;-48
2021/01/01 13:23:50;;;;;;;7.65;3.47;;;22.80;51.10;;;;;;5074410;27;45653;-48
2021/01/01 13:26:21;;;;;;;8.10;3.50;;;22.70;50.60;;;;;;5062702;28;45374;-48
2021/01/01 13:28:47;;;;;;;6.97;3.38;;;22.80;50.30;;;;;;5062701;28;45283;-48
2021/01/01 13:31:12;;;;;;;6.55;3.65;;;22.80;50.60;;;;;;5072076;28;45363;-48
2021/01/01 13:33:38;;;;;;;5.15;3.45;;;22.80;50.70;;;;;;5070012;28;47019;-49
2021/01/01 13:36:04;;;;;;;5.90;3.40;;;22.80;50.60;;;;;;5068193;28;45366;-50
2021/01/01 13:38:29;;;;;;;5.78;3.20;;;22.80;50.70;;;;;;5070290;28;45552;-48
2021/01/01 13:40:55;;;;;;;6.47;3.22;;;22.80;50.60;;;;;;5068654;28;46308;-49
2021/01/01 13:43:21;;;;;;;5.93;2.95;;;22.90;50.60;;;;;;5084214;28;45454;-48
2021/01/01 13:45:46;;;;;;;5.28;3.42;;;22.80;50.50;;;;;;5069524;28;45431;-49
2021/01/01 13:48:12;;;;;;;4.22;2.75;;;22.90;50.70;;;;;;5086804;28;45563;-49